• Join FlightAware (Why Join?)
  • Login
  • US Flag 
09:50AM EDT


 

Airport Tracker/Info


-or-


 

Live Flight TrackerFlight Track Log ✈ ASA704 ✈ 04-Jul-2013 ✈ CYVR - KLAX

Flight Track Log - Related Links

Times and Time Zones

All times are in EDT time to prevent confusion due to time zone crossing. See the ASA704 flight status page for this flight to view local times or setup timezone preferences in your user account.

Time Position Orientation Groundspeed Altitude Reporting Facility
EDT Latitude Longitude Course Direction KTS MPH feet Rate Location/Type
04:39PM 49.1667 -123.2167 176° South 150 173 1,100  Level Vancouver Center
04:40PM 49.1667 -123.2833 270° West 210 242 3,000 2,160 Climbing Vancouver Center
04:41PM 49.1500 -123.3833 256° West 230 265 5,500 1,980 Climbing Vancouver Center
04:42PM 49.0833 -123.4500 213° Southwest 280 322 7,000 1,560 Climbing Vancouver Center
04:43PM 49.0167 -123.5000 206° Southwest 270 311 8,700 1,740 Climbing Vancouver Center
04:44PM 48.4561 -122.8900 176° South  Level Estimated
04:44PM 48.9500 -123.5500 206° Southwest 300 345 10,500  Level Vancouver Center
04:45PM 48.8500 -123.5500 180° South 340 391 12,200 2,100 Climbing Vancouver Center
04:46PM 48.7500 -123.5167 168° South 370 426 14,700 2,460 Climbing Vancouver Center
04:47PM 48.6500 -123.5000 174° South 380 437 17,200 2,340 Climbing Vancouver Center
04:48PM 48.5333 -123.5000 180° South 390 449 19,400 2,160 Climbing Vancouver Center
04:49PM 48.4167 -123.5000 180° South 400 460 21,600 2,040 Climbing Vancouver Center
04:50PM 48.3000 -123.4869 176° South 415 478 24,000 1,800 Climbing Seattle Center
04:51PM 48.1811 -123.4778 177° South 425 489 25,700 1,620 Climbing Seattle Center
04:52PM 48.0614 -123.4703 178° South 430 495 27,300 1,500 Climbing Seattle Center
04:53PM 47.9567 -123.4642 178° South 434 499 28,800 1,680 Climbing Seattle Center
04:54PM 47.8164 -123.4558 178° South 428 493 30,800 1,740 Climbing Seattle Center
04:55PM 47.7019 -123.4469 177° South 421 484 32,400 1,080 Climbing Seattle Center
04:56PM 47.5900 -123.4394 177° South 411 473 33,000 240 Climbing Seattle Center
04:57PM 47.4772 -123.4317 177° South 412 474 33,000  Level Seattle Center
04:58PM 47.3658 -123.4239 177° South 409 471 33,000  Level Seattle Center
04:59PM 47.2528 -123.4175 178° South 411 473 33,000  Level Seattle Center
05:00PM 47.1408 -123.4089 177° South 408 470 33,000  Level Seattle Center
05:01PM 47.0061 -123.4033 178° South 410 472 33,000  Level Seattle Center
05:02PM 46.8939 -123.3969 178° South 409 471 33,000  Level Seattle Center
05:03PM 46.7811 -123.3925 178° South 411 473 33,000  Level Seattle Center
05:04PM 46.6692 -123.3878 178° South 408 470 33,000  Level Seattle Center
05:05PM 46.5575 -123.3864 180° South 406 467 33,000  Level Seattle Center
05:06PM 46.4394 -123.3794 178° South 410 472 33,000  Level Seattle Center
05:07PM 46.3242 -123.3747 178° South 415 478 33,000  Level Seattle Center
05:08PM 46.2103 -123.3689 178° South 411 473 33,000  Level Seattle Center
05:09PM 46.0961 -123.3631 178° South 411 473 33,000  Level Seattle Center
05:10PM 45.9819 -123.3583 178° South 412 474 33,000  Level Seattle Center
05:11PM 45.8678 -123.3531 178° South 412 474 33,000  Level Seattle Center
05:12PM 45.7542 -123.3492 179° South 409 471 33,000  Level Seattle Center
05:13PM 45.6400 -123.3442 178° South 411 473 33,000  Level Seattle Center
05:14PM 45.5261 -123.3392 178° South 410 472 33,000  Level Seattle Center
05:15PM 45.4114 -123.3336 178° South 412 474 33,000  Level Seattle Center
05:16PM 45.2975 -123.3269 178° South 410 472 33,000  Level Seattle Center
05:17PM 45.1814 -123.3225 178° South 414 476 33,000  Level Seattle Center
05:18PM 45.0647 -123.3172 178° South 418 481 33,000  Level Seattle Center
05:19PM 44.9467 -123.3108 178° South 419 482 33,000  Level Seattle Center
05:20PM 44.8267 -123.3050 178° South 424 488 33,000  Level Seattle Center
05:21PM 44.7067 -123.3003 178° South 427 491 33,000  Level Seattle Center
05:22PM 44.5883 -123.2961 179° South 424 488 33,000  Level Seattle Center
05:23PM 44.4700 -123.2886 177° South 425 489 33,000  Level Seattle Center
05:24PM 44.3278 -123.2594 172° South 430 495 33,000  Level Seattle Center
05:25PM 44.2111 -123.2369 172° South 426 490 33,000  Level Seattle Center
05:26PM 44.0917 -123.2169 173° South 429 494 33,000  Level Seattle Center
05:27PM 43.9878 -123.1881 169° South 427 491 33,000  Level Seattle Center
05:28PM 43.8719 -123.1497 167° South 429 494 33,000  Level Seattle Center
05:29PM 43.7561 -123.1131 167° South 427 491 33,000  Level Seattle Center
05:30PM 43.6169 -123.0689 167° South 427 491 33,000  Level Seattle Center
05:31PM 43.5039 -123.0236 164° South 425 489 33,000  Level Seattle Center
05:32PM 43.3975 -122.9439 151° Southeast 433 498 33,000  Level Seattle Center
05:33PM 43.2897 -122.8692 153° Southeast 434 499 33,000  Level Seattle Center
05:34PM 43.1744 -122.8292 166° South 426 490 33,000  Level Seattle Center
05:35PM 43.0578 -122.7978 169° South 428 493 33,000  Level Seattle Center
05:36PM 42.9417 -122.7636 168° South 427 491 33,000  Level Seattle Center
05:37PM 42.8242 -122.7300 168° South 430 495 33,000  Level Seattle Center
05:38PM 42.7067 -122.6958 168° South 430 495 33,000  Level Seattle Center
05:39PM 42.5900 -122.6619 168° South 430 495 33,000  Level Seattle Center
05:40PM 42.4733 -122.6303 169° South 429 494 33,000  Level Seattle Center
05:41PM 42.3575 -122.5964 168° South 429 494 33,000  Level Seattle Center
05:42PM 42.2417 -122.5636 168° South 429 494 33,000  Level Seattle Center
05:43PM 42.1272 -122.5319 168° South 426 490 33,000  Level Seattle Center
05:44PM 42.0125 -122.5000 168° South 426 490 33,000  Level Seattle Center
05:46PM 41.8778 -122.4628 168° South 416 479 33,000  Level Seattle Center
05:47PM 41.7647 -122.4322 169° South 417 480 33,000  Level Seattle Center
05:48PM 41.6511 -122.4011 168° South 419 482 33,000  Level Seattle Center
05:49PM 41.5372 -122.3683 168° South 421 484 33,000  Level Seattle Center
05:50PM 41.4233 -122.3358 168° South 421 484 33,000  Level Seattle Center
05:51PM 41.2981 -122.3028 169° South 418 481 33,000  Level Seattle Center
05:51PM 41.2042 -122.2778 169° South 419 482 33,000  Level Oakland Center
05:52PM 41.0886 -122.2450 168° South 423 487 33,000  Level Oakland Center
05:54PM 40.9756 -122.2167 169° South 417 480 33,000  Level Oakland Center
05:55PM 40.8617 -122.1850 168° South 417 480 33,000  Level Oakland Center
05:56PM 40.7472 -122.1522 168° South 421 484 33,000  Level Oakland Center
05:57PM 40.6319 -122.1214 169° South 424 488 33,000  Level Oakland Center
05:58PM 40.4958 -122.0831 168° South 416 479 33,000  Level Oakland Center
05:59PM 40.3808 -122.0519 168° South 418 481 33,000  Level Oakland Center
06:00PM 40.2644 -122.0208 168° South 421 484 33,000  Level Oakland Center
06:01PM 40.1469 -121.9908 169° South 424 488 33,000  Level Oakland Center
06:02PM 40.0314 -121.9611 169° South 419 482 33,000  Level Oakland Center
06:03PM 39.9153 -121.9311 169° South 422 486 33,000  Level Oakland Center
06:04PM 39.8011 -121.9006 168° South 419 482 33,000  Level Oakland Center
06:05PM 39.6867 -121.8711 169° South 418 481 33,000  Level Oakland Center
06:06PM 39.5717 -121.8397 168° South 420 483 33,000  Level Oakland Center
06:07PM 39.4511 -121.8075 168° South 417 480 33,000  Level Oakland Center
06:08PM 39.3367 -121.7772 168° South 418 481 33,000  Level Oakland Center
06:09PM 39.2222 -121.7486 169° South 420 483 33,000  Level Oakland Center
06:10PM 39.1086 -121.7197 169° South 417 480 33,000  Level Oakland Center
06:11PM 38.9953 -121.6919 169° South 417 480 33,000  Level Oakland Center
06:12PM 38.8808 -121.6625 169° South 419 482 33,000  Level Oakland Center
06:13PM 38.7675 -121.6344 169° South 418 481 33,000  Level Oakland Center
06:14PM 38.6567 -121.6064 169° South 412 474 33,000  Level Oakland Center
06:15PM 38.5439 -121.5778 169° South 417 480 33,000  Level Oakland Center
06:16PM 38.4119 -121.5358 166° South 413 475 33,000  Level Oakland Center
06:17PM 38.3081 -121.4733 155° Southeast 419 482 33,000  Level Oakland Center
06:18PM 38.2039 -121.4122 155° Southeast 417 480 33,000  Level Oakland Center
06:19PM 38.1006 -121.3503 155° Southeast 413 475 33,000  Level Oakland Center
06:20PM 37.9950 -121.2897 156° South 416 479 33,000  Level Oakland Center
06:21PM 37.8900 -121.2294 156° South 416 479 33,000  Level Oakland Center
06:22PM 37.7839 -121.1672 155° Southeast 420 483 33,000  Level Oakland Center
06:23PM 37.6775 -121.1053 155° Southeast 421 484 33,000  Level Oakland Center
06:24PM 37.5703 -121.0444 156° South 424 488 33,000  Level Oakland Center
06:25PM 37.4636 -120.9831 155° Southeast 422 486 33,000  Level Oakland Center
06:26PM 37.3364 -120.9114 156° South 419 482 33,000  Level Oakland Center
06:27PM 37.2303 -120.8522 156° South 417 480 33,000  Level Oakland Center
06:28PM 37.1258 -120.7942 156° South 412 474 33,000  Level Oakland Center
06:29PM 37.0200 -120.7342 156° South 415 478 33,000  Level Oakland Center
06:30PM 36.9153 -120.6781 157° South 411 473 33,000  Level Oakland Center
06:31PM 36.8089 -120.6211 157° South 414 476 33,000  Level Oakland Center
06:32PM 36.7139 -120.5681 156° South 414 476 33,000  Level Oakland Center
06:33PM 36.6089 -120.5075 155° Southeast 414 476 33,000  Level Oakland Center
06:34PM 36.4836 -120.4397 156° South 411 473 33,000  Level Oakland Center
06:35PM 36.3786 -120.3803 155° Southeast 414 476 33,000  Level Oakland Center
06:36PM 36.2747 -120.3225 156° South 409 471 33,000  Level Oakland Center
06:37PM 36.1700 -120.2650 156° South 411 473 33,000  Level Oakland Center
06:38PM 36.0653 -120.2086 156° South 410 472 33,000  Level Oakland Center
06:39PM 35.9606 -120.1503 156° South 410 472 33,000  Level Oakland Center
06:40PM 35.8550 -120.0911 156° South 415 478 33,000  Level Oakland Center
06:41PM 35.7511 -120.0333 156° South 411 473 33,000  Level Oakland Center
06:42PM 35.6472 -119.9750 155° Southeast 410 472 33,000  Level Oakland Center
06:43PM 35.5517 -119.8953 146° Southeast 418 481 33,000  Level Los Angeles Center
06:44PM 35.4569 -119.8133 145° Southeast 414 476 33,000 -420 Level Los Angeles Center
06:45PM 35.3628 -119.7319 145° Southeast 413 475 32,200 -1,140 Descending Los Angeles Center
06:46PM 35.2678 -119.6500 145° Southeast 414 476 30,700 -1,440 Descending Los Angeles Center
06:47PM 35.1722 -119.5692 145° Southeast 417 480 29,300 -1,440 Descending Los Angeles Center
06:48PM 35.0767 -119.4875 145° Southeast 418 481 27,800 -1,380 Descending Los Angeles Center
06:49PM 34.9814 -119.4069 145° Southeast 418 481 26,500 -1,140 Descending Los Angeles Center
06:50PM 34.8914 -119.3300 145° Southeast 403 464 25,500 -1,020 Descending Los Angeles Center
06:51PM 34.8039 -119.2567 145° Southeast 388 447 24,500 -1,020 Descending Los Angeles Center
06:52PM 34.7153 -119.1828 146° Southeast 386 444 23,500 -1,080 Descending Los Angeles Center
06:53PM 34.6169 -119.1003 145° Southeast 390 449 22,400 -1,200 Descending Los Angeles Center
06:54PM 34.5306 -119.0272 145° Southeast 378 435 21,100 -1,620 Descending Los Angeles Center
06:56PM 34.4469 -118.9569 145° Southeast 366 421 18,900 -2,220 Descending Los Angeles Center
06:57PM 34.3492 -118.8794 147° Southeast 349 402 16,200 -2,580 Descending Los Angeles Center
06:58PM 34.2572 -118.8458 163° South 346 398 13,700 -2,400 Descending Los Angeles Center
06:59PM 34.1497 -118.8056 163° South 337 388 11,300 -1,800 Descending Los Angeles Center
07:00PM 34.0603 -118.7719 163° South 325 374 10,000 -660 Descending Los Angeles Center
07:01PM 34.0311 -118.6861 112° Southeast 290 334 10,000 -480 Level Los Angeles Center
07:02PM 34.0228 -118.5914 96° East 285 328 9,100 -1,260 Descending Los Angeles Center
07:03PM 34.0128 -118.4894 97° East 283 326 7,500 -1,080 Descending Los Angeles Center
07:04PM 34.0156 -118.4117 88° East 270 311 6,900 -1,020 Descending Los Angeles Center
07:05PM 34.0236 -118.3289 83° East 252 290 5,500 -1,500 Descending Los Angeles Center
07:06PM 34.0317 -118.2514 83° East 238 274 3,900 -1,440 Descending Los Angeles Center
07:07PM 34.0025 -118.2094 130° Southeast 209 241 2,600 -720 Descending Los Angeles Center
07:08PM 33.9686 -118.2531 227° Southwest 181 208 2,500 -480 Descending Los Angeles Center
07:09PM 33.9611 -118.3067 260° West 170 196 1,700 -780 Descending Los Angeles Center
07:10PM 33.9572 -118.3553 265° West 158 182 1,000 -780 Descending Los Angeles Center
07:11PM 33.9522 -118.4006 262° West 147 169 200 -840 Descending Los Angeles Center
07:13PM 33.9425 -118.4081 228° Southwest  Level Estimated
07:20PM 33.9425 -118.4081 228° Southwest  Level Estimated